Hawaii METAR Reports

 

PHOG - Kahului, Hawaii, USA
Distance from station: WNW 8mi, 13km
Updated: Mon, 18-Nov-2019 4:54am HST
Clear
Clear
 Wind from NNE
Wind: NNE 8 mph , 13 km/h
Temperature: 75°F , 24°C
Dew Point: 64°F , 18°C
Humidity: 69%
Barometer: 29.90 inHg , 1012.5 hPa
Clouds: Clear
Visibility: 10 miles , 16 km
2019/11/18 14:54 PHOG 181454Z AUTO 02007KT 10SM CLR 24/18 A2990 RMK AO2 SLP129 T02390183 56006 TSNO $
PHJH - Lahaina/West Mau, Hawaii, USA
Distance from station: WNW 24mi, 39km
Updated: Sun, 17-Nov-2019 4:45pm HST
NOT Current
Light rain, Mostly cloudy
Light rain, Mostly cloudy
 Wind from NNE
Wind: NNE 17 mph , 28 km/h
Temperature: 77°F , 25°C
Dew Point: 72°F , 22°C
Humidity: 83%
Barometer: 29.91 inHg , 1012.9 hPa
Summary: Light Rain
Clouds: Mostly Cloudy
Visibility: 10 miles , 16 km
Cloud details: Partly Cloudy 3000 ft
Mostly Cloudy 4500 ft
2019/11/18 02:45 PHJH 180245Z 03015KT 10SM -RA SCT030 BKN045 25/22 A2991
 
PHNY - Lanai City Airpo, Hawaii, USA
Distance from station: W 40mi, 65km
Updated: Mon, 18-Nov-2019 4:56am HST

 
Temperature: 66°F , 19°C
Dew Point: 66°F , 19°C
Humidity: 100%
Visibility: 10 miles , 16 km
2019/11/18 14:56 PHNY 181456Z AUTO 10SM 19/19 RMK AO2 SLPNO 6//// T01890189 $
PHMK - Molokai, Hawaii, USA
Distance from station: WNW 55mi, 88km
Updated: Mon, 18-Nov-2019 4:54am HST
Few Clouds
Few Clouds
 Wind from NE
Wind: NE 10 mph , 17 km/h
Temperature: 77°F , 25°C
Dew Point: 66°F , 19°C
Humidity: 69%
Barometer: 29.92 inHg , 1013.2 hPa
Clouds: Few Clouds
Visibility: 10 miles , 16 km
Cloud details: Few Clouds 11000 ft
2019/11/18 14:54 PHMK 181454Z AUTO 04009KT 10SM FEW110 25/19 A2992 RMK AO2 SLP132 T02500189 55006 TSNO
 
PHKO - Kailua/Kona, Hawaii, USA
Distance from station: SSE 79mi, 128km
Updated: Mon, 18-Nov-2019 4:53am HST
Mostly Cloudy
Mostly Cloudy
 Wind from SE
Wind: SE 5 mph , 7 km/h
Temperature: 75°F , 24°C
Dew Point: 72°F , 22°C
Humidity: 89%
Barometer: 29.86 inHg , 1011.2 hPa
Clouds: Mostly Cloudy
Visibility: 10 miles , 16 km
Cloud details: Few Clouds 3500 ft
Mostly Cloudy 5500 ft
2019/11/18 14:53 PHKO 181453Z AUTO 14004KT 10SM FEW035 BKN055 24/22 A2986 RMK AO2 SLP111 60012 T02440217 55002 TSNO
PHSF - Bradshaw Aaf/Haw, Hawaii, USA
Distance from station: SE 90mi, 145km
Updated: Mon, 18-Nov-2019 4:58am HST
Clear
Clear
 Wind from SSE
Wind: SSE 9 mph , 15 km/h
Temperature: 48°F , 9°C
Wind Chill: 44°F , 7°C
Dew Point: 45°F , 7°C
Humidity: 87%
Barometer: 30.21 inHg , 1023 hPa
Clouds: Clear
Visibility: 10 miles , 16 km
2019/11/18 14:58 PHSF 181458Z AUTO 15008KT 10SM CLR 09/07 A3021 RMK AO2 SLP128 T00890070 57004 TSNO $
 
PHNG - Kaneohe Mcas, Hawaii, USA
Distance from station: WNW 102mi, 164km
Updated: Mon, 18-Nov-2019 4:57am HST
Few Clouds
Few Clouds
 Wind from NE
Wind: NE 5 mph , 7 km/h
Temperature: 75°F , 24°C
Dew Point: 64°F , 18°C
Humidity: 69%
Barometer: 29.89 inHg , 1012.2 hPa
Clouds: Few Clouds
Visibility: 10 miles , 16 km
Cloud details: Few Clouds 3000 ft
2019/11/18 14:57 PHNG 181457Z 04004KT 10SM FEW030 24/18 A2989 RMK AO2 SLP117 T02440183 56007
PHNL - Honolulu, Hawaii, USA
Distance from station: WNW 108mi, 174km
Updated: Mon, 18-Nov-2019 4:53am HST
Few Clouds
Few Clouds
 Wind from NW
Wind: NW 5 mph , 7 km/h
Temperature: 73°F , 23°C
Dew Point: 64°F , 18°C
Humidity: 74%
Barometer: 29.91 inHg , 1012.9 hPa
Clouds: Few Clouds
Visibility: 10 miles , 16 km
Cloud details: Few Clouds 2400 ft
2019/11/18 14:53 PHNL 181453Z 31004KT 10SM FEW024 23/18 A2991 RMK AO2 SLP127 T02280183 55008 $
 
PHTO - Hilo, Hawaii, USA
Distance from station: SE 114mi, 183km
Updated: Mon, 18-Nov-2019 4:53am HST
Mostly Cloudy
Mostly Cloudy
 Wind from W
Wind: W 7 mph , 11 km/h
Temperature: 72°F , 22°C
Dew Point: 68°F , 20°C
Humidity: 88%
Barometer: 29.90 inHg , 1012.5 hPa
Clouds: Mostly Cloudy
Visibility: 10 miles , 16 km
Cloud details: Mostly Cloudy 3500 ft
Mostly Cloudy 4200 ft
2019/11/18 14:53 PHTO 181453Z AUTO 26006KT 10SM BKN035 BKN042 22/20 A2990 RMK AO2 RAE08 SLP124 P0000 60013 T02220200 58000 TSNO $
PHJR - Kalaeloa, Hawaii, USA
Distance from station: WNW 117mi, 189km
Updated: Mon, 18-Nov-2019 3:53am HST
NOT Current
Clear
Clear
 Wind from varies
Wind: varies 3 mph , 6 km/h
Temperature: 72°F , 22°C
Dew Point: 64°F , 18°C
Humidity: 78%
Barometer: 29.92 inHg , 1013.2 hPa
Clouds: Clear
Visibility: 10 miles , 16 km
2019/11/18 13:53 PHJR 181353Z AUTO VRB03KT 10SM CLR 22/18 A2992 RMK AO2 SLP137 T02220183 TSNO
 
PHHI - Wheeler Afb/Oahu, Hawaii, USA
Distance from station: WNW 120mi, 193km
Updated: Mon, 18-Nov-2019 4:56am HST
Clear
Clear
 Wind from WNW
Wind: WNW 8 mph , 13 km/h
Temperature: 66°F , 19°C
Dew Point: 64°F , 18°C
Humidity: 94%
Barometer: 29.92 inHg , 1013.2 hPa
Clouds: Clear
Visibility: 10 miles , 16 km
2019/11/18 14:56 PHHI 181456Z AUTO 29007KT 10SM CLR 19/18 A2992 RMK AO2 SLP123 T01880175 55007 $
PHLI - Lihue/Kauai Is, Hawaii, USA
Distance from station: WNW 209mi, 336km
Updated: Mon, 18-Nov-2019 5:39am HST
Mostly Cloudy
Mostly Cloudy
 Wind from NE
Wind: NE 13 mph , 20 km/h
Temperature: 75°F , 24°C
Dew Point: 70°F , 21°C
Humidity: 83%
Barometer: 29.94 inHg , 1013.9 hPa
Clouds: Mostly Cloudy
Visibility: 8 miles , 13 km
Cloud details: Partly Cloudy 2200 ft
Mostly Cloudy 3800 ft
Mostly Cloudy 12000 ft
2019/11/18 15:39 PHLI 181539Z AUTO 04011KT 8SM SCT022 BKN038 BKN120 24/21 A2994 RMK AO2 T02440211 TSNO
 
PHBK - Barking Sands/Ka, Hawaii, USA
Distance from station: WNW 237mi, 382km
Updated: Mon, 18-Nov-2019 4:56am HST
Mostly Cloudy
Mostly Cloudy
 Wind from ENE
Wind: ENE 6 mph , 9 km/h
Temperature: 73°F , 23°C
Dew Point: 63°F , 17°C
Humidity: 69%
Barometer: 29.90 inHg , 1012.5 hPa
Clouds: Mostly Cloudy
Visibility: 10 miles , 16 km
Cloud details: Mostly Cloudy 8000 ft
2019/11/18 14:56 PHBK 181456Z AUTO 07005KT 10SM BKN080 23/17 A2990 RMK AO2 SLP126 6//// T02280167 56013 PNO